createdAt,value
2023-05-02T00:00:37.146Z,24.80
2023-05-02T00:03:55.321Z,24.70
2023-05-02T00:06:57.902Z,24.80
2023-05-02T00:10:02.815Z,24.40
2023-05-02T00:13:05.417Z,24.40
2023-05-02T00:16:07.566Z,24.30
2023-05-02T00:19:09.855Z,24.40
2023-05-02T00:22:14.241Z,24.40
2023-05-02T00:25:17.272Z,24.50
2023-05-02T00:28:34.915Z,24.40
2023-05-02T00:31:37.419Z,24.50
2023-05-02T00:34:39.586Z,24.50
2023-05-02T00:37:41.856Z,24.40
2023-05-02T00:40:48.256Z,24.50
2023-05-02T00:43:50.529Z,24.40
2023-05-02T00:46:53.224Z,24.40
2023-05-02T00:49:55.639Z,24.40
2023-05-02T00:53:00.475Z,24.50
2023-05-02T00:56:03.020Z,24.40
2023-05-02T00:59:07.155Z,24.50
2023-05-02T01:02:35.404Z,24.50
2023-05-02T01:05:51.207Z,24.60
2023-05-02T01:13:17.993Z,24.70
2023-05-02T01:16:23.185Z,24.60
2023-05-02T01:20:08.347Z,24.80
2023-05-02T01:23:41.054Z,24.70
2023-05-02T01:27:11.383Z,24.80
2023-05-02T01:30:33.264Z,24.90
2023-05-02T01:33:36.747Z,24.80
2023-05-02T01:36:47.182Z,25.00
2023-05-02T01:39:51.102Z,24.90
2023-05-02T01:42:55.043Z,24.90
2023-05-02T01:45:59.015Z,25.00
2023-05-02T01:49:04.111Z,25.20
2023-05-02T01:52:11.485Z,25.30
2023-05-02T01:55:15.984Z,25.20
2023-05-02T01:58:47.278Z,25.30
2023-05-02T02:01:56.459Z,25.20
2023-05-02T02:08:50.939Z,25.30
2023-05-02T02:12:03.374Z,25.30
2023-05-02T02:15:13.537Z,25.60
2023-05-02T02:18:22.096Z,25.50
2023-05-02T02:21:28.022Z,25.50
2023-05-02T02:24:31.723Z,25.50
2023-05-02T02:27:34.173Z,25.30
2023-05-02T02:31:13.839Z,25.30
2023-05-02T02:34:22.365Z,25.60
2023-05-02T02:37:31.200Z,25.70
2023-05-02T02:40:40.005Z,25.70
2023-05-02T02:43:47.011Z,26.00
2023-05-02T02:46:56.888Z,25.80
2023-05-02T02:50:19.970Z,25.80
2023-05-02T02:53:33.042Z,25.70
2023-05-02T02:56:45.773Z,25.70
2023-05-02T03:00:18.122Z,25.70
2023-05-02T03:03:23.275Z,25.70
2023-05-02T03:06:27.595Z,25.70
2023-05-02T03:09:44.286Z,25.90
2023-05-02T03:12:46.607Z,25.80
2023-05-02T03:15:53.354Z,25.80
2023-05-02T03:18:55.575Z,25.90
2023-05-02T03:22:02.084Z,26.00
2023-05-02T03:25:48.795Z,25.90
2023-05-02T03:29:01.515Z,26.30
2023-05-02T03:32:03.462Z,26.30
2023-05-02T03:35:06.519Z,26.30
2023-05-02T03:38:09.085Z,26.30
2023-05-02T03:41:11.372Z,26.60
2023-05-02T03:44:13.701Z,26.70
2023-05-02T03:47:15.918Z,27.20
2023-05-02T03:50:35.960Z,27.60
2023-05-02T03:53:41.084Z,27.90
2023-05-02T03:56:44.006Z,28.10
2023-05-02T03:59:47.310Z,28.40
2023-05-02T04:02:49.410Z,28.20
2023-05-02T04:05:51.844Z,28.70
2023-05-02T04:08:53.830Z,28.20
2023-05-02T04:11:56.142Z,28.60
2023-05-02T04:14:58.355Z,28.70
2023-05-02T04:18:00.732Z,28.60
2023-05-02T04:21:03.212Z,28.70
2023-05-02T04:24:05.745Z,29.00
2023-05-02T04:27:12.501Z,29.40
2023-05-02T04:30:17.318Z,29.30
2023-05-02T04:33:19.648Z,29.10
2023-05-02T04:36:22.189Z,29.20
2023-05-02T04:39:24.354Z,29.30
2023-05-02T04:42:26.598Z,29.30
2023-05-02T04:45:28.613Z,29.10
2023-05-02T04:48:31.033Z,29.20
2023-05-02T04:51:39.390Z,29.00
2023-05-02T04:54:43.613Z,29.00
2023-05-02T04:57:45.702Z,28.80
2023-05-02T05:00:47.888Z,28.90
2023-05-02T05:03:57.130Z,28.90
2023-05-02T05:07:01.520Z,28.90
2023-05-02T05:10:03.795Z,28.80
2023-05-02T05:13:06.372Z,28.50
2023-05-02T05:16:12.271Z,28.50
2023-05-02T05:19:14.566Z,28.60
2023-05-02T05:22:16.575Z,28.50
2023-05-02T05:25:20.998Z,28.80
2023-05-02T05:28:22.986Z,28.60
2023-05-02T05:31:25.320Z,28.60
2023-05-02T05:34:27.367Z,28.70
2023-05-02T05:37:29.569Z,28.40
2023-05-02T05:40:31.653Z,28.70
2023-05-02T05:43:35.610Z,28.70
2023-05-02T05:46:38.698Z,29.20
2023-05-02T05:49:43.570Z,28.90
2023-05-02T05:52:45.775Z,29.00
2023-05-02T05:55:48.074Z,28.70
2023-05-02T05:58:51.853Z,28.60
2023-05-02T06:01:54.212Z,28.80
2023-05-02T06:04:56.320Z,28.60
2023-05-02T06:08:03.278Z,28.90
2023-05-02T06:11:12.060Z,29.20
2023-05-02T06:14:14.342Z,29.20
2023-05-02T06:17:16.482Z,29.00
2023-05-02T06:20:19.225Z,29.10
2023-05-02T06:23:21.584Z,28.70
2023-05-02T06:26:54.750Z,28.80
2023-05-02T06:30:06.085Z,28.20
2023-05-02T06:33:08.147Z,27.80
2023-05-02T06:36:10.944Z,27.70
2023-05-02T06:39:28.132Z,27.90
2023-05-02T06:42:57.658Z,26.80
2023-05-02T06:46:00.832Z,25.90
2023-05-02T06:49:03.537Z,25.80
2023-05-02T06:52:05.452Z,25.20
2023-05-02T06:55:28.490Z,24.70
2023-05-02T06:58:52.413Z,25.00
2023-05-02T07:02:07.190Z,24.90
2023-05-02T07:05:09.523Z,24.40
2023-05-02T07:08:11.768Z,23.70
2023-05-02T07:11:16.909Z,23.30
2023-05-02T07:14:22.345Z,24.00
2023-05-02T07:17:25.660Z,23.40
2023-05-02T07:20:29.305Z,23.50
2023-05-02T07:23:35.344Z,23.70
2023-05-02T07:26:37.761Z,23.40
2023-05-02T07:29:59.030Z,23.40
2023-05-02T07:33:50.729Z,22.60
2023-05-02T07:36:56.022Z,22.90
2023-05-02T07:40:29.060Z,22.40
2023-05-02T07:43:32.252Z,22.70
2023-05-02T07:50:28.080Z,23.00
2023-05-02T07:53:42.685Z,22.80
2023-05-02T07:57:03.563Z,22.70
2023-05-02T08:00:10.222Z,23.20
2023-05-02T08:03:28.303Z,23.20
2023-05-02T08:06:38.643Z,23.20
2023-05-02T08:09:44.955Z,22.90
2023-05-02T08:13:13.355Z,23.20
2023-05-02T08:16:15.569Z,23.10
2023-05-02T08:19:44.863Z,22.80
2023-05-02T08:23:04.925Z,23.30
2023-05-02T08:26:06.980Z,23.20
2023-05-02T08:29:17.340Z,23.40
2023-05-02T08:32:34.865Z,22.80
2023-05-02T08:36:05.521Z,22.90
2023-05-02T08:39:11.320Z,23.30
2023-05-02T08:42:19.347Z,23.30
2023-05-02T08:45:25.306Z,23.20
2023-05-02T08:48:28.319Z,22.80
2023-05-02T08:51:32.727Z,22.90
2023-05-02T08:54:49.327Z,22.60
2023-05-02T08:57:58.154Z,21.60
2023-05-02T09:01:30.027Z,21.90
2023-05-02T09:05:22.783Z,22.00
2023-05-02T09:08:26.039Z,21.90
2023-05-02T09:11:29.766Z,22.30
2023-05-02T09:14:32.813Z,22.50
2023-05-02T09:18:39.838Z,22.40
2023-05-02T09:22:03.671Z,22.40
2023-05-02T09:25:52.746Z,22.70
2023-05-02T09:29:28.166Z,22.90
2023-05-02T09:32:51.261Z,22.80
2023-05-02T09:36:21.503Z,22.10
2023-05-02T09:40:31.275Z,22.30
2023-05-02T09:44:09.832Z,22.00
2023-05-02T09:47:25.243Z,22.50
2023-05-02T09:50:52.737Z,22.60
2023-05-02T09:53:55.238Z,21.70
2023-05-02T09:57:36.833Z,22.20
2023-05-02T10:00:59.301Z,22.30
2023-05-02T10:04:16.997Z,21.60
2023-05-02T10:08:02.161Z,21.90
2023-05-02T10:11:43.753Z,22.60
2023-05-02T10:18:55.001Z,22.20
2023-05-02T10:22:10.970Z,22.20
2023-05-02T10:25:25.199Z,22.20
2023-05-02T10:28:27.905Z,23.20
2023-05-02T10:31:35.124Z,22.10
2023-05-02T10:39:05.264Z,20.90
2023-05-02T10:42:25.873Z,21.60
2023-05-02T10:45:31.961Z,21.40
2023-05-02T10:50:13.323Z,21.20
2023-05-02T10:53:39.639Z,21.00
2023-05-02T10:57:21.662Z,21.50
2023-05-02T11:00:34.560Z,21.20
2023-05-02T11:03:59.210Z,20.70
2023-05-02T11:07:33.329Z,20.80
2023-05-02T11:10:35.770Z,20.90
2023-05-02T11:13:51.009Z,20.90
2023-05-02T11:18:02.667Z,21.30
2023-05-02T11:21:31.198Z,20.70
2023-05-02T11:24:41.244Z,21.20
2023-05-02T11:28:31.826Z,21.00
2023-05-02T11:36:15.378Z,21.30
2023-05-02T11:39:21.817Z,21.30
2023-05-02T11:42:37.693Z,20.80
2023-05-02T11:45:42.550Z,21.10
2023-05-02T11:48:54.288Z,20.80
2023-05-02T11:51:58.607Z,20.50
2023-05-02T11:55:00.808Z,20.50
2023-05-02T11:58:19.582Z,20.40
2023-05-02T12:01:21.895Z,20.20
2023-05-02T12:04:25.713Z,20.30
2023-05-02T12:07:45.231Z,19.70
2023-05-02T12:10:54.094Z,20.60
2023-05-02T12:13:56.310Z,19.60
2023-05-02T12:17:14.152Z,20.00
2023-05-02T12:20:23.688Z,20.30
2023-05-02T12:23:28.867Z,19.70
2023-05-02T12:26:32.995Z,20.10
2023-05-02T12:34:03.717Z,20.50
2023-05-02T12:37:10.518Z,20.70
2023-05-02T12:40:27.231Z,19.70
2023-05-02T12:43:49.495Z,20.30
2023-05-02T12:46:59.704Z,19.90
2023-05-02T12:50:53.521Z,20.30
2023-05-02T12:53:55.735Z,20.70
2023-05-02T13:01:36.255Z,20.40
2023-05-02T13:04:41.070Z,21.00
2023-05-02T13:11:22.634Z,21.20
2023-05-02T13:14:47.599Z,21.70
2023-05-02T13:17:52.943Z,22.70
2023-05-02T13:20:55.149Z,23.30
2023-05-02T13:24:51.323Z,23.30
2023-05-02T13:27:58.739Z,23.10
2023-05-02T13:31:15.591Z,23.80
2023-05-02T13:34:19.595Z,24.10
2023-05-02T13:37:21.528Z,24.40
2023-05-02T13:40:32.411Z,24.40
2023-05-02T13:43:34.432Z,24.40
2023-05-02T13:46:43.590Z,25.60
2023-05-02T13:49:51.271Z,25.00
2023-05-02T13:53:09.067Z,24.80
2023-05-02T13:56:21.177Z,24.90
2023-05-02T13:59:32.723Z,24.90
2023-05-02T14:02:40.580Z,24.00
2023-05-02T14:05:51.142Z,24.20
2023-05-02T14:09:00.362Z,24.30
2023-05-02T14:12:02.943Z,24.40
2023-05-02T14:15:05.701Z,25.30
2023-05-02T14:18:13.372Z,25.70
2023-05-02T14:21:15.882Z,26.10
2023-05-02T14:24:20.704Z,26.60
2023-05-02T14:27:23.099Z,26.60
2023-05-02T14:30:25.592Z,26.40
2023-05-02T14:33:30.065Z,25.90
2023-05-02T14:36:32.588Z,25.80
2023-05-02T14:39:36.605Z,25.10
2023-05-02T14:42:43.673Z,24.70
2023-05-02T14:45:46.507Z,24.80
2023-05-02T14:48:53.996Z,24.30
2023-05-02T14:51:58.834Z,24.70
2023-05-02T14:55:06.437Z,24.40
2023-05-02T14:58:10.006Z,24.90
2023-05-02T15:01:22.784Z,25.00
2023-05-02T15:04:27.271Z,25.30
2023-05-02T15:07:30.285Z,25.00
2023-05-02T15:10:37.169Z,25.10
2023-05-02T15:13:39.400Z,25.80
2023-05-02T15:16:41.488Z,25.90
2023-05-02T15:19:43.810Z,25.90
2023-05-02T15:22:47.878Z,25.80
2023-05-02T15:25:50.144Z,25.70
2023-05-02T15:28:52.228Z,25.10
2023-05-02T15:31:54.757Z,25.20
2023-05-02T15:34:56.968Z,25.40
2023-05-02T15:38:01.635Z,25.00
2023-05-02T15:41:03.886Z,26.10
2023-05-02T15:44:06.182Z,24.80
2023-05-02T15:47:10.624Z,24.60
2023-05-02T15:50:13.703Z,24.50
2023-05-02T15:53:18.651Z,25.20
2023-05-02T15:56:29.025Z,24.70
2023-05-02T15:59:32.027Z,24.40
2023-05-02T16:02:34.259Z,24.90
2023-05-02T16:05:36.835Z,24.80
2023-05-02T16:08:39.139Z,25.10
2023-05-02T16:11:44.380Z,25.40
2023-05-02T16:14:47.018Z,26.10
2023-05-02T16:17:50.289Z,26.20
2023-05-02T16:20:53.077Z,25.90
2023-05-02T16:24:10.301Z,26.20
2023-05-02T16:27:19.886Z,26.60
2023-05-02T16:30:46.610Z,26.50
2023-05-02T16:34:10.619Z,26.10
2023-05-02T16:37:20.861Z,25.50
2023-05-02T16:40:23.211Z,24.80
2023-05-02T16:43:25.259Z,24.60
2023-05-02T16:46:27.704Z,24.90
2023-05-02T16:49:29.732Z,25.20
2023-05-02T16:52:34.303Z,26.30
2023-05-02T16:55:36.725Z,26.60
2023-05-02T16:58:43.599Z,27.00
2023-05-02T17:01:46.032Z,27.30
2023-05-02T17:04:50.142Z,26.90
2023-05-02T17:07:52.288Z,26.30
2023-05-02T17:10:54.557Z,26.00
2023-05-02T17:13:57.567Z,25.90
2023-05-02T17:17:00.847Z,25.90
2023-05-02T17:20:03.657Z,26.60
2023-05-02T17:23:06.339Z,26.60
2023-05-02T17:26:14.411Z,26.60
2023-05-02T17:29:16.801Z,27.10
2023-05-02T17:32:21.913Z,27.20
2023-05-02T17:35:27.630Z,27.30
2023-05-02T17:38:29.638Z,27.60
2023-05-02T17:41:40.177Z,27.70
2023-05-02T17:44:52.228Z,28.10
2023-05-02T17:47:56.009Z,28.20
2023-05-02T17:51:04.104Z,27.90
2023-05-02T17:54:20.901Z,27.80
2023-05-02T17:57:27.307Z,27.70
2023-05-02T18:00:37.354Z,27.30
2023-05-02T18:03:42.054Z,26.80
2023-05-02T18:06:50.117Z,26.40
2023-05-02T18:10:16.891Z,26.40
2023-05-02T18:13:39.826Z,26.30
2023-05-02T18:16:53.708Z,25.80
2023-05-02T18:19:55.654Z,25.70
2023-05-02T18:23:17.823Z,25.40
2023-05-02T18:26:45.057Z,25.80
2023-05-02T18:29:54.454Z,25.80
2023-05-02T18:32:57.614Z,26.10
2023-05-02T18:36:00.470Z,26.10
2023-05-02T18:39:10.637Z,26.10
2023-05-02T18:42:24.583Z,26.10
2023-05-02T18:45:34.797Z,26.50
2023-05-02T18:48:43.612Z,26.50
2023-05-02T18:51:48.294Z,26.10
2023-05-02T18:54:58.346Z,25.90
2023-05-02T18:58:00.713Z,26.10
2023-05-02T19:01:16.190Z,25.90
2023-05-02T19:04:32.043Z,26.00
2023-05-02T19:07:44.529Z,25.90
2023-05-02T19:10:50.366Z,25.90
2023-05-02T19:13:56.752Z,25.70
2023-05-02T19:16:59.110Z,25.70
2023-05-02T19:20:03.503Z,25.90
2023-05-02T19:23:20.104Z,26.30
2023-05-02T19:26:26.858Z,26.30
2023-05-02T19:29:31.722Z,26.60
2023-05-02T19:32:38.118Z,26.60
2023-05-02T19:35:43.919Z,26.20
2023-05-02T19:38:51.291Z,26.10
2023-05-02T19:41:53.724Z,25.90
2023-05-02T19:45:02.646Z,25.80
2023-05-02T19:48:06.231Z,26.00
2023-05-02T19:51:15.161Z,25.90
2023-05-02T19:54:23.431Z,25.80
2023-05-02T19:57:25.962Z,25.40
2023-05-02T20:00:27.958Z,25.40
2023-05-02T20:03:34.899Z,25.30
2023-05-02T20:06:39.607Z,25.30
2023-05-02T20:09:42.026Z,25.40
2023-05-02T20:12:47.034Z,25.70
2023-05-02T20:15:50.995Z,25.70
2023-05-02T20:18:53.583Z,25.30
2023-05-02T20:21:56.289Z,25.00
2023-05-02T20:24:58.327Z,24.80
2023-05-02T20:28:11.125Z,25.00
2023-05-02T20:31:17.969Z,24.80
2023-05-02T20:34:22.765Z,25.00
2023-05-02T20:37:27.586Z,24.80
2023-05-02T20:40:31.402Z,24.70
2023-05-02T20:43:35.399Z,24.60
2023-05-02T20:46:40.520Z,24.30
2023-05-02T20:49:45.396Z,24.40
2023-05-02T20:52:48.342Z,24.30
2023-05-02T20:55:51.096Z,24.20
2023-05-02T20:59:02.322Z,24.30
2023-05-02T21:02:07.778Z,24.20
2023-05-02T21:05:18.913Z,24.40
2023-05-02T21:08:28.814Z,24.20
2023-05-02T21:11:31.384Z,24.10
2023-05-02T21:14:36.390Z,24.10
2023-05-02T21:17:40.931Z,24.00
2023-05-02T21:20:49.642Z,24.00
2023-05-02T21:23:51.961Z,24.20
2023-05-02T21:26:53.874Z,24.30
2023-05-02T21:30:10.562Z,24.50
2023-05-02T21:33:27.526Z,24.70
2023-05-02T21:36:39.102Z,24.90
2023-05-02T21:39:42.360Z,25.30
2023-05-02T21:42:50.540Z,25.10
2023-05-02T21:45:52.510Z,25.30
2023-05-02T21:48:54.765Z,25.10
2023-05-02T21:51:58.354Z,25.20
2023-05-02T21:55:01.071Z,25.50
2023-05-02T21:58:04.153Z,25.60
2023-05-02T22:01:06.624Z,25.20
2023-05-02T22:04:08.689Z,24.80
2023-05-02T22:07:10.932Z,24.50
2023-05-02T22:10:13.369Z,24.80
2023-05-02T22:13:15.993Z,24.90
2023-05-02T22:16:18.264Z,24.60
2023-05-02T22:19:21.106Z,25.00
2023-05-02T22:22:23.168Z,24.50
2023-05-02T22:25:56.260Z,24.60
2023-05-02T22:29:02.047Z,24.30
2023-05-02T22:32:04.619Z,24.40
2023-05-02T22:35:07.314Z,24.60
2023-05-02T22:38:17.220Z,24.60
2023-05-02T22:41:19.185Z,24.60
2023-05-02T22:44:24.318Z,24.40
2023-05-02T22:47:26.872Z,24.10
2023-05-02T22:50:34.224Z,24.00
2023-05-02T22:53:40.064Z,24.30
2023-05-02T22:56:42.382Z,23.90
2023-05-02T22:59:55.879Z,23.80
2023-05-02T23:03:11.669Z,23.50
2023-05-02T23:06:17.324Z,23.80
2023-05-02T23:09:19.601Z,23.80
2023-05-02T23:12:21.823Z,24.20
2023-05-02T23:15:24.310Z,24.10
2023-05-02T23:18:26.246Z,24.00
2023-05-02T23:21:28.493Z,23.70
2023-05-02T23:24:38.293Z,23.60
2023-05-02T23:27:40.749Z,23.40
2023-05-02T23:30:42.802Z,23.20
2023-05-02T23:33:45.837Z,23.20
2023-05-02T23:36:49.038Z,23.10
2023-05-02T23:40:08.237Z,23.00
2023-05-02T23:43:10.896Z,23.00
2023-05-02T23:46:53.225Z,22.60
2023-05-02T23:49:55.593Z,22.60
2023-05-02T23:53:00.463Z,22.20
2023-05-02T23:56:03.863Z,22.10
2023-05-02T23:59:05.881Z,21.80
